sensor_id;sensor_type;location;lat;lon;timestamp;P1;durP1;ratioP1;P2;durP2;ratioP2
73276;SDS011;61501;43.316;5.372;2023-09-12T00:02:06;6.72;;;5.57;;
73276;SDS011;61501;43.316;5.372;2023-09-12T00:04:31;7.15;;;5.45;;
73276;SDS011;61501;43.316;5.372;2023-09-12T00:06:57;5.65;;;5.15;;
73276;SDS011;61501;43.316;5.372;2023-09-12T00:09:23;6.72;;;5.32;;
73276;SDS011;61501;43.316;5.372;2023-09-12T00:11:48;6.05;;;5.45;;
73276;SDS011;61501;43.316;5.372;2023-09-12T00:14:17;7.47;;;6.30;;
73276;SDS011;61501;43.316;5.372;2023-09-12T00:16:43;5.55;;;5.10;;
73276;SDS011;61501;43.316;5.372;2023-09-12T00:19:09;6.50;;;5.53;;
73276;SDS011;61501;43.316;5.372;2023-09-12T00:21:34;6.32;;;5.72;;
73276;SDS011;61501;43.316;5.372;2023-09-12T00:24:00;6.40;;;5.40;;
73276;SDS011;61501;43.316;5.372;2023-09-12T00:26:26;6.82;;;5.28;;
73276;SDS011;61501;43.316;5.372;2023-09-12T00:28:52;5.65;;;4.68;;
73276;SDS011;61501;43.316;5.372;2023-09-12T00:31:17;5.90;;;5.30;;
73276;SDS011;61501;43.316;5.372;2023-09-12T00:33:43;5.55;;;5.05;;
73276;SDS011;61501;43.316;5.372;2023-09-12T00:36:08;6.78;;;4.80;;
73276;SDS011;61501;43.316;5.372;2023-09-12T00:38:34;6.07;;;4.70;;
73276;SDS011;61501;43.316;5.372;2023-09-12T00:41:00;5.55;;;4.90;;
73276;SDS011;61501;43.316;5.372;2023-09-12T00:43:25;5.68;;;4.45;;
73276;SDS011;61501;43.316;5.372;2023-09-12T00:45:51;5.60;;;5.10;;
73276;SDS011;61501;43.316;5.372;2023-09-12T00:48:17;5.15;;;4.55;;
73276;SDS011;61501;43.316;5.372;2023-09-12T00:50:44;5.57;;;4.68;;
73276;SDS011;61501;43.316;5.372;2023-09-12T00:53:11;5.53;;;4.25;;
73276;SDS011;61501;43.316;5.372;2023-09-12T00:55:37;5.20;;;4.20;;
73276;SDS011;61501;43.316;5.372;2023-09-12T00:58:08;4.75;;;4.35;;
73276;SDS011;61501;43.316;5.372;2023-09-12T01:00:34;4.55;;;4.15;;
73276;SDS011;61501;43.316;5.372;2023-09-12T01:03:00;5.03;;;3.95;;
73276;SDS011;61501;43.316;5.372;2023-09-12T01:05:26;4.60;;;4.20;;
73276;SDS011;61501;43.316;5.372;2023-09-12T01:07:53;6.95;;;3.95;;
73276;SDS011;61501;43.316;5.372;2023-09-12T01:10:19;5.30;;;4.03;;
73276;SDS011;61501;43.316;5.372;2023-09-12T01:12:45;7.20;;;4.68;;
73276;SDS011;61501;43.316;5.372;2023-09-12T01:15:10;5.03;;;4.40;;
73276;SDS011;61501;43.316;5.372;2023-09-12T01:17:40;4.88;;;4.38;;
73276;SDS011;61501;43.316;5.372;2023-09-12T01:20:08;6.82;;;4.57;;
73276;SDS011;61501;43.316;5.372;2023-09-12T01:27:53;5.13;;;4.68;;
73276;SDS011;61501;43.316;5.372;2023-09-12T01:30:22;4.45;;;4.05;;
73276;SDS011;61501;43.316;5.372;2023-09-12T01:32:50;5.40;;;4.68;;
73276;SDS011;61501;43.316;5.372;2023-09-12T01:35:16;4.90;;;4.40;;
73276;SDS011;61501;43.316;5.372;2023-09-12T01:37:41;5.22;;;4.35;;
73276;SDS011;61501;43.316;5.372;2023-09-12T01:40:07;4.50;;;4.10;;
73276;SDS011;61501;43.316;5.372;2023-09-12T01:42:37;5.63;;;4.80;;
73276;SDS011;61501;43.316;5.372;2023-09-12T01:45:05;6.10;;;4.80;;
73276;SDS011;61501;43.316;5.372;2023-09-12T01:47:35;5.97;;;4.72;;
73276;SDS011;61501;43.316;5.372;2023-09-12T01:50:02;4.70;;;4.30;;
73276;SDS011;61501;43.316;5.372;2023-09-12T01:52:30;5.40;;;4.82;;
73276;SDS011;61501;43.316;5.372;2023-09-12T01:54:55;6.50;;;4.97;;
73276;SDS011;61501;43.316;5.372;2023-09-12T01:57:22;4.95;;;4.50;;
73276;SDS011;61501;43.316;5.372;2023-09-12T01:59:48;6.50;;;4.68;;
73276;SDS011;61501;43.316;5.372;2023-09-12T02:02:17;5.10;;;4.60;;
73276;SDS011;61501;43.316;5.372;2023-09-12T02:04:47;5.72;;;5.22;;
73276;SDS011;61501;43.316;5.372;2023-09-12T02:07:27;5.30;;;4.80;;
73276;SDS011;61501;43.316;5.372;2023-09-12T02:09:56;5.20;;;4.57;;
73276;SDS011;61501;43.316;5.372;2023-09-12T02:12:22;5.45;;;4.95;;
73276;SDS011;61501;43.316;5.372;2023-09-12T02:14:48;5.25;;;4.75;;
73276;SDS011;61501;43.316;5.372;2023-09-12T02:17:13;4.90;;;4.45;;
73276;SDS011;61501;43.316;5.372;2023-09-12T02:19:39;5.25;;;4.70;;
73276;SDS011;61501;43.316;5.372;2023-09-12T02:22:04;7.35;;;4.63;;
73276;SDS011;61501;43.316;5.372;2023-09-12T02:24:30;5.40;;;4.55;;
73276;SDS011;61501;43.316;5.372;2023-09-12T02:26:58;6.00;;;4.78;;
73276;SDS011;61501;43.316;5.372;2023-09-12T02:29:24;7.85;;;5.07;;
73276;SDS011;61501;43.316;5.372;2023-09-12T02:31:50;6.53;;;4.82;;
73276;SDS011;61501;43.316;5.372;2023-09-12T02:34:15;5.15;;;4.40;;
73276;SDS011;61501;43.316;5.372;2023-09-12T02:36:41;6.32;;;4.43;;
73276;SDS011;61501;43.316;5.372;2023-09-12T02:39:06;5.03;;;4.57;;
73276;SDS011;61501;43.316;5.372;2023-09-12T02:41:32;5.70;;;5.20;;
73276;SDS011;61501;43.316;5.372;2023-09-12T02:43:58;5.10;;;4.60;;
73276;SDS011;61501;43.316;5.372;2023-09-12T02:46:24;5.65;;;4.78;;
73276;SDS011;61501;43.316;5.372;2023-09-12T02:48:49;5.32;;;4.82;;
73276;SDS011;61501;43.316;5.372;2023-09-12T02:51:15;5.00;;;4.50;;
73276;SDS011;61501;43.316;5.372;2023-09-12T02:53:40;5.78;;;5.22;;
73276;SDS011;61501;43.316;5.372;2023-09-12T02:56:06;5.05;;;4.65;;
73276;SDS011;61501;43.316;5.372;2023-09-12T02:58:32;5.00;;;4.60;;
73276;SDS011;61501;43.316;5.372;2023-09-12T03:00:57;4.78;;;4.32;;
73276;SDS011;61501;43.316;5.372;2023-09-12T03:03:24;5.32;;;4.82;;
73276;SDS011;61501;43.316;5.372;2023-09-12T03:05:59;5.22;;;4.65;;
73276;SDS011;61501;43.316;5.372;2023-09-12T03:08:26;5.57;;;5.10;;
73276;SDS011;61501;43.316;5.372;2023-09-12T03:10:55;5.15;;;4.65;;
73276;SDS011;61501;43.316;5.372;2023-09-12T03:15:52;6.10;;;4.70;;
73276;SDS011;61501;43.316;5.372;2023-09-12T03:18:18;5.53;;;4.88;;
73276;SDS011;61501;43.316;5.372;2023-09-12T03:20:44;5.35;;;4.85;;
73276;SDS011;61501;43.316;5.372;2023-09-12T03:23:09;5.97;;;4.90;;
73276;SDS011;61501;43.316;5.372;2023-09-12T03:25:38;4.88;;;4.47;;
73276;SDS011;61501;43.316;5.372;2023-09-12T03:28:04;5.75;;;4.75;;
73276;SDS011;61501;43.316;5.372;2023-09-12T03:30:32;5.38;;;4.90;;
73276;SDS011;61501;43.316;5.372;2023-09-12T03:32:58;6.15;;;4.70;;
73276;SDS011;61501;43.316;5.372;2023-09-12T03:35:24;5.30;;;4.70;;
73276;SDS011;61501;43.316;5.372;2023-09-12T03:37:50;5.63;;;4.63;;
73276;SDS011;61501;43.316;5.372;2023-09-12T03:40:15;5.45;;;4.70;;
73276;SDS011;61501;43.316;5.372;2023-09-12T03:42:41;7.45;;;5.03;;
73276;SDS011;61501;43.316;5.372;2023-09-12T03:45:06;4.55;;;4.10;;
73276;SDS011;61501;43.316;5.372;2023-09-12T03:47:33;4.97;;;4.55;;
73276;SDS011;61501;43.316;5.372;2023-09-12T03:49:58;5.55;;;4.70;;
73276;SDS011;61501;43.316;5.372;2023-09-12T03:52:24;5.03;;;4.63;;
73276;SDS011;61501;43.316;5.372;2023-09-12T03:54:50;9.68;;;5.13;;
73276;SDS011;61501;43.316;5.372;2023-09-12T03:57:15;4.93;;;4.43;;
73276;SDS011;61501;43.316;5.372;2023-09-12T03:59:41;5.20;;;4.60;;
73276;SDS011;61501;43.316;5.372;2023-09-12T04:02:07;5.25;;;4.70;;
73276;SDS011;61501;43.316;5.372;2023-09-12T04:04:33;6.50;;;4.60;;
73276;SDS011;61501;43.316;5.372;2023-09-12T04:06:59;5.43;;;4.57;;
73276;SDS011;61501;43.316;5.372;2023-09-12T04:09:24;6.50;;;4.90;;
73276;SDS011;61501;43.316;5.372;2023-09-12T04:11:50;4.68;;;4.28;;
73276;SDS011;61501;43.316;5.372;2023-09-12T04:14:16;7.07;;;5.43;;
73276;SDS011;61501;43.316;5.372;2023-09-12T04:16:41;4.75;;;4.35;;
73276;SDS011;61501;43.316;5.372;2023-09-12T04:19:07;4.60;;;4.20;;
73276;SDS011;61501;43.316;5.372;2023-09-12T04:21:32;5.10;;;4.57;;
73276;SDS011;61501;43.316;5.372;2023-09-12T04:23:58;5.28;;;4.30;;
73276;SDS011;61501;43.316;5.372;2023-09-12T04:26:24;5.97;;;4.47;;
73276;SDS011;61501;43.316;5.372;2023-09-12T04:28:49;4.75;;;4.35;;
73276;SDS011;61501;43.316;5.372;2023-09-12T04:31:15;5.00;;;4.60;;
73276;SDS011;61501;43.316;5.372;2023-09-12T04:33:41;5.25;;;4.78;;
73276;SDS011;61501;43.316;5.372;2023-09-12T04:36:06;4.80;;;4.32;;
73276;SDS011;61501;43.316;5.372;2023-09-12T04:38:32;5.85;;;4.45;;
73276;SDS011;61501;43.316;5.372;2023-09-12T04:40:59;5.20;;;3.80;;
73276;SDS011;61501;43.316;5.372;2023-09-12T04:43:29;4.97;;;4.03;;
73276;SDS011;61501;43.316;5.372;2023-09-12T04:45:55;8.02;;;4.15;;
73276;SDS011;61501;43.316;5.372;2023-09-12T04:48:21;6.95;;;4.18;;
73276;SDS011;61501;43.316;5.372;2023-09-12T04:50:47;6.30;;;4.78;;
73276;SDS011;61501;43.316;5.372;2023-09-12T04:53:13;5.15;;;4.47;;
73276;SDS011;61501;43.316;5.372;2023-09-12T04:55:38;5.97;;;4.60;;
73276;SDS011;61501;43.316;5.372;2023-09-12T04:58:04;6.40;;;4.30;;
73276;SDS011;61501;43.316;5.372;2023-09-12T05:00:31;4.80;;;4.30;;
73276;SDS011;61501;43.316;5.372;2023-09-12T05:02:57;4.50;;;4.10;;
73276;SDS011;61501;43.316;5.372;2023-09-12T05:05:23;23.13;;;18.17;;
73276;SDS011;61501;43.316;5.372;2023-09-12T05:07:48;42.13;;;37.65;;
73276;SDS011;61501;43.316;5.372;2023-09-12T05:10:16;35.45;;;31.85;;
73276;SDS011;61501;43.316;5.372;2023-09-12T05:12:42;21.48;;;18.70;;
73276;SDS011;61501;43.316;5.372;2023-09-12T05:15:07;23.38;;;17.85;;
73276;SDS011;61501;43.316;5.372;2023-09-12T05:17:33;11.40;;;9.52;;
73276;SDS011;61501;43.316;5.372;2023-09-12T05:19:59;10.70;;;7.85;;
73276;SDS011;61501;43.316;5.372;2023-09-12T05:22:24;10.88;;;7.75;;
73276;SDS011;61501;43.316;5.372;2023-09-12T05:24:50;8.00;;;7.07;;
73276;SDS011;61501;43.316;5.372;2023-09-12T05:27:16;6.20;;;5.55;;
73276;SDS011;61501;43.316;5.372;2023-09-12T05:29:41;7.70;;;6.47;;
73276;SDS011;61501;43.316;5.372;2023-09-12T05:32:07;7.05;;;5.40;;
73276;SDS011;61501;43.316;5.372;2023-09-12T05:34:32;6.47;;;5.45;;
73276;SDS011;61501;43.316;5.372;2023-09-12T05:36:58;7.32;;;5.55;;
73276;SDS011;61501;43.316;5.372;2023-09-12T05:39:24;5.50;;;5.00;;
73276;SDS011;61501;43.316;5.372;2023-09-12T05:41:52;5.47;;;4.65;;
73276;SDS011;61501;43.316;5.372;2023-09-12T05:44:17;7.10;;;4.80;;
73276;SDS011;61501;43.316;5.372;2023-09-12T05:46:46;6.60;;;4.95;;
73276;SDS011;61501;43.316;5.372;2023-09-12T05:49:13;7.38;;;4.60;;
73276;SDS011;61501;43.316;5.372;2023-09-12T05:51:39;6.25;;;5.00;;
73276;SDS011;61501;43.316;5.372;2023-09-12T05:54:05;8.02;;;4.75;;
73276;SDS011;61501;43.316;5.372;2023-09-12T05:56:31;6.07;;;4.32;;
73276;SDS011;61501;43.316;5.372;2023-09-12T05:58:56;4.38;;;3.97;;
73276;SDS011;61501;43.316;5.372;2023-09-12T06:01:22;4.10;;;3.72;;
73276;SDS011;61501;43.316;5.372;2023-09-12T06:03:48;6.63;;;4.28;;
73276;SDS011;61501;43.316;5.372;2023-09-12T06:06:14;7.93;;;4.28;;
73276;SDS011;61501;43.316;5.372;2023-09-12T06:08:39;9.30;;;4.57;;
73276;SDS011;61501;43.316;5.372;2023-09-12T06:11:05;5.07;;;4.32;;
73276;SDS011;61501;43.316;5.372;2023-09-12T06:13:31;4.75;;;4.25;;
73276;SDS011;61501;43.316;5.372;2023-09-12T06:15:57;6.22;;;5.18;;
73276;SDS011;61501;43.316;5.372;2023-09-12T06:18:24;4.82;;;3.95;;
73276;SDS011;61501;43.316;5.372;2023-09-12T06:20:51;7.10;;;4.70;;
73276;SDS011;61501;43.316;5.372;2023-09-12T06:23:17;5.00;;;4.35;;
73276;SDS011;61501;43.316;5.372;2023-09-12T06:25:43;5.50;;;4.40;;
73276;SDS011;61501;43.316;5.372;2023-09-12T06:28:09;86.35;;;26.73;;
73276;SDS011;61501;43.316;5.372;2023-09-12T06:30:37;19.23;;;7.25;;
73276;SDS011;61501;43.316;5.372;2023-09-12T06:33:03;10.13;;;4.70;;
73276;SDS011;61501;43.316;5.372;2023-09-12T06:35:29;5.07;;;4.22;;
73276;SDS011;61501;43.316;5.372;2023-09-12T06:37:56;6.35;;;4.30;;
73276;SDS011;61501;43.316;5.372;2023-09-12T06:40:22;8.30;;;4.30;;
73276;SDS011;61501;43.316;5.372;2023-09-12T06:42:47;8.32;;;5.20;;
73276;SDS011;61501;43.316;5.372;2023-09-12T06:45:13;8.82;;;4.70;;
73276;SDS011;61501;43.316;5.372;2023-09-12T06:47:39;6.25;;;4.75;;
73276;SDS011;61501;43.316;5.372;2023-09-12T06:50:04;6.05;;;4.53;;
73276;SDS011;61501;43.316;5.372;2023-09-12T06:52:30;5.25;;;4.55;;
73276;SDS011;61501;43.316;5.372;2023-09-12T06:54:56;4.97;;;4.43;;
73276;SDS011;61501;43.316;5.372;2023-09-12T06:57:21;6.53;;;4.90;;
73276;SDS011;61501;43.316;5.372;2023-09-12T06:59:47;6.43;;;4.40;;
73276;SDS011;61501;43.316;5.372;2023-09-12T07:02:14;7.97;;;4.72;;
73276;SDS011;61501;43.316;5.372;2023-09-12T07:04:39;6.60;;;4.40;;
73276;SDS011;61501;43.316;5.372;2023-09-12T07:07:05;6.28;;;4.80;;
73276;SDS011;61501;43.316;5.372;2023-09-12T07:09:31;7.57;;;4.57;;
73276;SDS011;61501;43.316;5.372;2023-09-12T07:11:56;5.45;;;4.75;;
73276;SDS011;61501;43.316;5.372;2023-09-12T07:14:22;5.40;;;4.50;;
73276;SDS011;61501;43.316;5.372;2023-09-12T07:16:50;5.50;;;4.20;;
73276;SDS011;61501;43.316;5.372;2023-09-12T07:19:15;5.63;;;4.07;;
73276;SDS011;61501;43.316;5.372;2023-09-12T07:21:41;6.05;;;4.72;;
73276;SDS011;61501;43.316;5.372;2023-09-12T07:24:07;6.85;;;5.13;;
73276;SDS011;61501;43.316;5.372;2023-09-12T07:26:32;5.38;;;4.25;;
73276;SDS011;61501;43.316;5.372;2023-09-12T07:28:58;6.57;;;4.30;;
73276;SDS011;61501;43.316;5.372;2023-09-12T07:31:27;11.23;;;4.15;;
73276;SDS011;61501;43.316;5.372;2023-09-12T07:33:53;5.55;;;3.55;;
73276;SDS011;61501;43.316;5.372;2023-09-12T07:36:18;4.95;;;3.85;;
73276;SDS011;61501;43.316;5.372;2023-09-12T07:38:44;5.40;;;3.80;;
73276;SDS011;61501;43.316;5.372;2023-09-12T07:41:10;5.38;;;3.80;;
73276;SDS011;61501;43.316;5.372;2023-09-12T07:43:36;9.95;;;4.13;;
73276;SDS011;61501;43.316;5.372;2023-09-12T07:46:01;15.50;;;5.00;;
73276;SDS011;61501;43.316;5.372;2023-09-12T07:48:27;5.30;;;3.90;;
73276;SDS011;61501;43.316;5.372;2023-09-12T07:50:53;5.45;;;3.80;;
73276;SDS011;61501;43.316;5.372;2023-09-12T07:53:18;7.80;;;3.60;;
73276;SDS011;61501;43.316;5.372;2023-09-12T07:55:44;3.85;;;3.33;;
73276;SDS011;61501;43.316;5.372;2023-09-12T07:58:11;4.93;;;3.60;;
73276;SDS011;61501;43.316;5.372;2023-09-12T08:00:38;6.50;;;4.43;;
73276;SDS011;61501;43.316;5.372;2023-09-12T08:03:04;4.53;;;3.40;;
73276;SDS011;61501;43.316;5.372;2023-09-12T08:05:30;4.60;;;3.88;;
73276;SDS011;61501;43.316;5.372;2023-09-12T08:07:55;5.68;;;3.50;;
73276;SDS011;61501;43.316;5.372;2023-09-12T08:10:21;4.20;;;3.72;;
73276;SDS011;61501;43.316;5.372;2023-09-12T08:12:46;5.68;;;4.10;;
73276;SDS011;61501;43.316;5.372;2023-09-12T08:15:12;7.68;;;3.92;;
73276;SDS011;61501;43.316;5.372;2023-09-12T08:17:38;5.70;;;3.78;;
73276;SDS011;61501;43.316;5.372;2023-09-12T08:20:04;7.25;;;4.63;;
73276;SDS011;61501;43.316;5.372;2023-09-12T08:22:31;7.35;;;4.72;;
73276;SDS011;61501;43.316;5.372;2023-09-12T08:24:57;8.65;;;4.50;;
73276;SDS011;61501;43.316;5.372;2023-09-12T08:27:22;11.10;;;5.13;;
73276;SDS011;61501;43.316;5.372;2023-09-12T08:29:48;10.93;;;5.43;;
73276;SDS011;61501;43.316;5.372;2023-09-12T08:32:14;7.70;;;5.20;;
73276;SDS011;61501;43.316;5.372;2023-09-12T08:34:40;6.00;;;5.40;;
73276;SDS011;61501;43.316;5.372;2023-09-12T08:37:05;11.60;;;4.95;;
73276;SDS011;61501;43.316;5.372;2023-09-12T08:39:39;9.80;;;5.63;;
73276;SDS011;61501;43.316;5.372;2023-09-12T08:42:08;5.68;;;4.82;;
73276;SDS011;61501;43.316;5.372;2023-09-12T08:44:36;10.43;;;4.90;;
73276;SDS011;61501;43.316;5.372;2023-09-12T08:47:02;8.23;;;4.78;;
73276;SDS011;61501;43.316;5.372;2023-09-12T08:49:30;6.38;;;5.03;;
73276;SDS011;61501;43.316;5.372;2023-09-12T08:51:59;7.20;;;4.88;;
73276;SDS011;61501;43.316;5.372;2023-09-12T08:54:25;9.50;;;5.32;;
73276;SDS011;61501;43.316;5.372;2023-09-12T08:56:51;9.43;;;5.57;;
73276;SDS011;61501;43.316;5.372;2023-09-12T08:59:17;8.20;;;5.32;;
73276;SDS011;61501;43.316;5.372;2023-09-12T09:01:43;7.00;;;4.85;;
73276;SDS011;61501;43.316;5.372;2023-09-12T09:04:10;16.27;;;5.20;;
73276;SDS011;61501;43.316;5.372;2023-09-12T09:06:37;7.05;;;5.47;;
73276;SDS011;61501;43.316;5.372;2023-09-12T09:09:05;10.27;;;5.78;;
73276;SDS011;61501;43.316;5.372;2023-09-12T09:11:33;5.63;;;5.13;;
73276;SDS011;61501;43.316;5.372;2023-09-12T09:13:59;10.52;;;5.97;;
73276;SDS011;61501;43.316;5.372;2023-09-12T09:16:27;9.07;;;5.35;;
73276;SDS011;61501;43.316;5.372;2023-09-12T09:18:57;5.68;;;5.05;;
73276;SDS011;61501;43.316;5.372;2023-09-12T09:21:26;6.75;;;5.93;;
73276;SDS011;61501;43.316;5.372;2023-09-12T09:23:55;9.23;;;6.75;;
73276;SDS011;61501;43.316;5.372;2023-09-12T09:26:24;10.82;;;5.97;;
73276;SDS011;61501;43.316;5.372;2023-09-12T09:29:08;14.52;;;7.05;;
73276;SDS011;61501;43.316;5.372;2023-09-12T09:31:42;9.45;;;6.55;;
73276;SDS011;61501;43.316;5.372;2023-09-12T09:34:16;10.82;;;6.57;;
73276;SDS011;61501;43.316;5.372;2023-09-12T09:36:53;6.63;;;5.97;;
73276;SDS011;61501;43.316;5.372;2023-09-12T09:39:20;9.18;;;6.50;;
73276;SDS011;61501;43.316;5.372;2023-09-12T09:41:48;6.63;;;5.72;;
73276;SDS011;61501;43.316;5.372;2023-09-12T09:44:15;8.50;;;6.18;;
73276;SDS011;61501;43.316;5.372;2023-09-12T09:46:44;8.43;;;6.38;;
73276;SDS011;61501;43.316;5.372;2023-09-12T09:49:11;9.40;;;6.63;;
73276;SDS011;61501;43.316;5.372;2023-09-12T09:51:42;6.72;;;6.15;;
73276;SDS011;61501;43.316;5.372;2023-09-12T09:54:09;6.40;;;5.70;;
73276;SDS011;61501;43.316;5.372;2023-09-12T09:56:46;6.68;;;6.07;;
73276;SDS011;61501;43.316;5.372;2023-09-12T09:59:14;6.82;;;6.10;;
73276;SDS011;61501;43.316;5.372;2023-09-12T10:01:41;6.30;;;5.78;;
73276;SDS011;61501;43.316;5.372;2023-09-12T10:04:08;7.07;;;6.38;;
73276;SDS011;61501;43.316;5.372;2023-09-12T10:06:35;8.05;;;6.45;;
73276;SDS011;61501;43.316;5.372;2023-09-12T10:09:02;6.72;;;6.03;;
73276;SDS011;61501;43.316;5.372;2023-09-12T10:11:32;6.70;;;6.00;;
73276;SDS011;61501;43.316;5.372;2023-09-12T10:14:00;6.68;;;5.97;;
73276;SDS011;61501;43.316;5.372;2023-09-12T10:16:35;6.97;;;6.10;;
73276;SDS011;61501;43.316;5.372;2023-09-12T10:19:19;6.15;;;5.57;;
73276;SDS011;61501;43.316;5.372;2023-09-12T10:22:00;7.47;;;6.03;;
73276;SDS011;61501;43.316;5.372;2023-09-12T10:24:32;6.45;;;5.78;;
73276;SDS011;61501;43.316;5.372;2023-09-12T10:26:59;6.82;;;6.10;;
73276;SDS011;61501;43.316;5.372;2023-09-12T10:29:27;6.40;;;5.80;;
73276;SDS011;61501;43.316;5.372;2023-09-12T10:31:53;6.68;;;6.07;;
73276;SDS011;61501;43.316;5.372;2023-09-12T10:34:19;7.22;;;6.57;;
73276;SDS011;61501;43.316;5.372;2023-09-12T10:36:47;7.57;;;5.82;;
73276;SDS011;61501;43.316;5.372;2023-09-12T10:39:14;8.88;;;6.05;;
73276;SDS011;61501;43.316;5.372;2023-09-12T10:41:40;7.43;;;6.18;;
73276;SDS011;61501;43.316;5.372;2023-09-12T10:44:08;6.25;;;5.65;;
73276;SDS011;61501;43.316;5.372;2023-09-12T10:46:36;5.65;;;5.05;;
73276;SDS011;61501;43.316;5.372;2023-09-12T10:49:06;5.95;;;5.40;;
73276;SDS011;61501;43.316;5.372;2023-09-12T10:51:42;6.40;;;5.90;;
73276;SDS011;61501;43.316;5.372;2023-09-12T10:54:13;7.28;;;5.75;;
73276;SDS011;61501;43.316;5.372;2023-09-12T10:57:02;6.78;;;5.95;;
73276;SDS011;61501;43.316;5.372;2023-09-12T11:00:23;5.35;;;4.85;;
73276;SDS011;61501;43.316;5.372;2023-09-12T11:02:36;6.65;;;5.90;;
73276;SDS011;61501;43.316;5.372;2023-09-12T11:05:04;7.13;;;5.82;;
73276;SDS011;61501;43.316;5.372;2023-09-12T11:10:16;7.00;;;6.32;;
73276;SDS011;61501;43.316;5.372;2023-09-12T11:12:47;7.80;;;5.95;;
73276;SDS011;61501;43.316;5.372;2023-09-12T11:15:17;6.40;;;5.80;;
73276;SDS011;61501;43.316;5.372;2023-09-12T11:17:44;7.07;;;6.38;;
73276;SDS011;61501;43.316;5.372;2023-09-12T11:20:12;7.15;;;6.00;;
73276;SDS011;61501;43.316;5.372;2023-09-12T11:22:42;8.93;;;6.60;;
73276;SDS011;61501;43.316;5.372;2023-09-12T11:25:24;6.80;;;5.93;;
73276;SDS011;61501;43.316;5.372;2023-09-12T11:30:19;6.60;;;5.60;;
73276;SDS011;61501;43.316;5.372;2023-09-12T11:32:47;7.95;;;6.28;;
73276;SDS011;61501;43.316;5.372;2023-09-12T11:35:15;6.63;;;5.93;;
73276;SDS011;61501;43.316;5.372;2023-09-12T11:37:50;7.22;;;6.53;;
73276;SDS011;61501;43.316;5.372;2023-09-12T11:40:22;6.40;;;5.82;;
73276;SDS011;61501;43.316;5.372;2023-09-12T11:42:49;7.97;;;6.00;;
73276;SDS011;61501;43.316;5.372;2023-09-12T11:45:17;7.22;;;6.63;;
73276;SDS011;61501;43.316;5.372;2023-09-12T11:47:45;6.50;;;5.90;;
73276;SDS011;61501;43.316;5.372;2023-09-12T11:53:03;7.05;;;6.35;;
73276;SDS011;61501;43.316;5.372;2023-09-12T11:55:49;6.50;;;5.90;;
73276;SDS011;61501;43.316;5.372;2023-09-12T11:58:19;10.18;;;5.68;;
73276;SDS011;61501;43.316;5.372;2023-09-12T12:00:45;7.30;;;5.82;;
73276;SDS011;61501;43.316;5.372;2023-09-12T12:03:13;6.95;;;6.25;;
73276;SDS011;61501;43.316;5.372;2023-09-12T12:05:40;6.60;;;5.88;;
73276;SDS011;61501;43.316;5.372;2023-09-12T12:08:12;6.10;;;5.60;;
73276;SDS011;61501;43.316;5.372;2023-09-12T12:13:06;7.25;;;6.18;;
73276;SDS011;61501;43.316;5.372;2023-09-12T12:15:36;7.13;;;6.18;;
73276;SDS011;61501;43.316;5.372;2023-09-12T12:18:02;9.20;;;6.28;;
73276;SDS011;61501;43.316;5.372;2023-09-12T12:20:28;8.15;;;6.32;;
73276;SDS011;61501;43.316;5.372;2023-09-12T12:22:55;7.00;;;6.30;;
73276;SDS011;61501;43.316;5.372;2023-09-12T12:25:21;7.22;;;6.07;;
73276;SDS011;61501;43.316;5.372;2023-09-12T12:27:47;7.45;;;5.80;;
73276;SDS011;61501;43.316;5.372;2023-09-12T12:30:13;6.00;;;5.40;;
73276;SDS011;61501;43.316;5.372;2023-09-12T12:32:43;7.13;;;5.63;;
73276;SDS011;61501;43.316;5.372;2023-09-12T12:35:22;6.93;;;5.93;;
73276;SDS011;61501;43.316;5.372;2023-09-12T12:37:49;7.03;;;5.47;;
73276;SDS011;61501;43.316;5.372;2023-09-12T12:40:15;5.90;;;5.30;;
73276;SDS011;61501;43.316;5.372;2023-09-12T12:42:42;8.02;;;5.20;;
73276;SDS011;61501;43.316;5.372;2023-09-12T12:45:12;5.82;;;5.18;;
73276;SDS011;61501;43.316;5.372;2023-09-12T12:47:39;5.72;;;5.25;;
73276;SDS011;61501;43.316;5.372;2023-09-12T12:50:12;5.93;;;5.43;;
73276;SDS011;61501;43.316;5.372;2023-09-12T12:52:39;5.88;;;5.38;;
73276;SDS011;61501;43.316;5.372;2023-09-12T12:55:06;6.70;;;5.45;;
73276;SDS011;61501;43.316;5.372;2023-09-12T12:57:37;7.60;;;4.93;;
73276;SDS011;61501;43.316;5.372;2023-09-12T13:02:33;9.77;;;5.28;;
73276;SDS011;61501;43.316;5.372;2023-09-12T13:04:59;5.68;;;5.18;;
73276;SDS011;61501;43.316;5.372;2023-09-12T13:07:24;6.32;;;5.60;;
73276;SDS011;61501;43.316;5.372;2023-09-12T13:09:50;6.03;;;5.13;;
73276;SDS011;61501;43.316;5.372;2023-09-12T13:12:16;7.32;;;5.63;;
73276;SDS011;61501;43.316;5.372;2023-09-12T13:14:43;6.45;;;5.65;;
73276;SDS011;61501;43.316;5.372;2023-09-12T13:17:09;5.95;;;5.25;;
73276;SDS011;61501;43.316;5.372;2023-09-12T13:19:35;6.20;;;5.60;;
73276;SDS011;61501;43.316;5.372;2023-09-12T13:22:00;9.48;;;6.13;;
73276;SDS011;61501;43.316;5.372;2023-09-12T13:24:26;5.95;;;5.50;;
73276;SDS011;61501;43.316;5.372;2023-09-12T13:26:52;6.22;;;5.72;;
73276;SDS011;61501;43.316;5.372;2023-09-12T13:29:18;6.80;;;6.13;;
73276;SDS011;61501;43.316;5.372;2023-09-12T13:31:44;10.32;;;6.68;;
73276;SDS011;61501;43.316;5.372;2023-09-12T13:34:10;6.22;;;5.63;;
73276;SDS011;61501;43.316;5.372;2023-09-12T13:36:36;7.25;;;6.20;;
73276;SDS011;61501;43.316;5.372;2023-09-12T13:39:02;7.38;;;6.03;;
73276;SDS011;61501;43.316;5.372;2023-09-12T13:41:29;9.32;;;6.05;;
73276;SDS011;61501;43.316;5.372;2023-09-12T13:43:54;9.32;;;6.57;;
73276;SDS011;61501;43.316;5.372;2023-09-12T13:46:20;5.80;;;5.30;;
73276;SDS011;61501;43.316;5.372;2023-09-12T13:48:46;6.68;;;6.00;;
73276;SDS011;61501;43.316;5.372;2023-09-12T13:51:11;6.60;;;5.70;;
73276;SDS011;61501;43.316;5.372;2023-09-12T13:53:38;6.97;;;5.72;;
73276;SDS011;61501;43.316;5.372;2023-09-12T13:56:04;6.60;;;6.00;;
73276;SDS011;61501;43.316;5.372;2023-09-12T13:58:32;7.15;;;6.45;;
73276;SDS011;61501;43.316;5.372;2023-09-12T14:00:58;6.00;;;5.50;;
73276;SDS011;61501;43.316;5.372;2023-09-12T14:03:23;6.10;;;5.60;;
73276;SDS011;61501;43.316;5.372;2023-09-12T14:05:49;7.07;;;6.38;;
73276;SDS011;61501;43.316;5.372;2023-09-12T14:08:15;6.93;;;6.22;;
73276;SDS011;61501;43.316;5.372;2023-09-12T14:10:41;6.93;;;6.32;;
73276;SDS011;61501;43.316;5.372;2023-09-12T14:13:07;7.35;;;5.93;;
73276;SDS011;61501;43.316;5.372;2023-09-12T14:15:33;6.50;;;5.90;;
73276;SDS011;61501;43.316;5.372;2023-09-12T14:17:59;6.75;;;6.15;;
73276;SDS011;61501;43.316;5.372;2023-09-12T14:20:24;6.80;;;6.10;;
73276;SDS011;61501;43.316;5.372;2023-09-12T14:22:50;7.30;;;6.60;;
73276;SDS011;61501;43.316;5.372;2023-09-12T14:25:15;6.63;;;5.68;;
73276;SDS011;61501;43.316;5.372;2023-09-12T14:27:41;6.30;;;5.25;;
73276;SDS011;61501;43.316;5.372;2023-09-12T14:30:08;7.85;;;6.18;;
73276;SDS011;61501;43.316;5.372;2023-09-12T14:32:40;7.00;;;6.30;;
73276;SDS011;61501;43.316;5.372;2023-09-12T14:35:06;6.50;;;5.72;;
73276;SDS011;61501;43.316;5.372;2023-09-12T14:37:32;7.32;;;6.47;;
73276;SDS011;61501;43.316;5.372;2023-09-12T14:39:58;7.20;;;5.93;;
73276;SDS011;61501;43.316;5.372;2023-09-12T14:42:25;6.80;;;6.05;;
73276;SDS011;61501;43.316;5.372;2023-09-12T14:44:53;6.68;;;6.13;;
73276;SDS011;61501;43.316;5.372;2023-09-12T14:47:19;6.85;;;6.10;;
73276;SDS011;61501;43.316;5.372;2023-09-12T14:49:45;7.20;;;6.28;;
73276;SDS011;61501;43.316;5.372;2023-09-12T14:52:10;7.75;;;7.05;;
73276;SDS011;61501;43.316;5.372;2023-09-12T14:54:36;6.72;;;6.07;;
73276;SDS011;61501;43.316;5.372;2023-09-12T14:57:02;7.35;;;6.15;;
73276;SDS011;61501;43.316;5.372;2023-09-12T14:59:27;6.93;;;6.25;;
73276;SDS011;61501;43.316;5.372;2023-09-12T15:01:53;7.45;;;6.70;;
73276;SDS011;61501;43.316;5.372;2023-09-12T15:04:18;7.43;;;6.63;;
73276;SDS011;61501;43.316;5.372;2023-09-12T15:06:44;7.13;;;6.32;;